Latest Coastal Weather Observations for Hervey Bay

IDQ60701

Issued at 9:11 am EST Sunday 28 May 2017 (issued every 10 minutes, with the page automatically refreshed every 10 minutes)

About coastal observations | Map of coastal stations | Coastal observations for QLD | Marine services | Other Formats
Station Details ID: 040405 Name: HERVEY BAY AIRPORT Lat: -25.32 Lon: 152.88 Height: 12.98 m
Data from the previous 72 hours. | See also: Recent months at Hervey Bay
Date/Time
EST
Temp
°C
Wind Pressure Rain since
9am
mm
Weather Cloud Vis
km
Sea
Height
m
Swell
Dir  Spd
kts
Gust
kts
hPa Trend Height
m
Period
s
Dir
28/09:00am 18.8 SSW 5 7 1019.4 - 0.0 - - 10 - - - -
28/08:30am 17.2 SSW 6 9 1019.2 - 0.0 - - 10 - - - -
28/08:00am 16.3 SW 5 7 1019.2 - 0.0 - - 10 - - - -
28/07:30am 15.4 SW 5 8 1019.0 - 0.0 - - 10 - - - -
28/07:00am 14.3 CALM 0 0 1018.9 - 0.0 - - 10 - - - -
28/06:30am 13.9 SSW 3 4 1018.6 - 0.0 - - 10 - - - -
28/06:00am 14.4 SW 3 5 1018.5 - 0.0 - - 10 - - - -
28/05:30am 14.7 SSW 5 6 1018.3 - 0.0 - - 10 - - - -
28/05:10am 14.8 SW 6 7 1018.2 - 0.0 - Partly cloudy 10 - - - -
28/05:05am 14.8 SW 6 8 1018.1 - 0.0 - Partly cloudy 10 - - - -
28/05:00am 14.8 SW 5 8 1018.2 - 0.0 - Partly cloudy 10 - - - -
28/04:30am 15.1 SW 6 7 1018.1 - 0.0 - Cloudy 2 - - - -
28/04:01am 14.3 SW 3 7 1018.2 - 0.0 - Partly cloudy 4 - - - -
28/04:00am 14.0 SW 3 5 1018.2 - 0.0 - Partly cloudy 10 - - - -
28/03:59am 13.9 SW 3 5 1018.2 - 0.0 - Partly cloudy 10 - - - -
28/03:30am 13.9 SSW 3 4 1018.1 - 0.0 - - 10 - - - -
28/03:00am 13.0 CALM 0 0 1018.3 - 0.0 - - 10 - - - -
28/02:30am 13.3 CALM 0 0 1018.4 - 0.0 - - 10 - - - -
28/02:00am 13.3 CALM 0 0 1018.9 - 0.0 - - 10 - - - -
28/01:30am 13.4 SW 2 3 1019.1 - 0.0 - - 10 - - - -
28/01:00am 13.8 CALM 0 0 1019.1 - 0.0 - - 10 - - - -
28/12:30am 14.0 CALM 0 0 1019.3 - 0.0 - - 10 - - - -
28/12:00am 14.2 SSW 1 4 1019.4 - 0.0 - - 10 - - - -
 
Date/Time
EST
Temp
°C
Wind Pressure Rain since
9am
mm
Weather Cloud Vis
km
Sea
Height
m
Swell
Dir  Spd
kts
Gust
kts
hPa Trend Height
m
Period
s
Dir
27/11:30pm 14.3 CALM 0 1 1019.8 - 0.0 - - 10 - - - -
27/11:00pm 14.2 SSW 3 4 1019.8 - 0.0 - - 10 - - - -
27/10:30pm 14.6 CALM 0 0 1019.9 - 0.0 - - 10 - - - -
27/10:00pm 14.7 CALM 0 0 1020.0 - 0.0 - - 10 - - - -
27/09:30pm 15.2 CALM 0 0 1020.0 - 0.0 - - 10 - - - -
27/09:00pm 15.3 CALM 0 0 1020.1 - 0.0 - - 10 - - - -
27/08:30pm 16.0 CALM 0 3 1020.1 - 0.0 - - 10 - - - -
27/08:00pm 16.3 SSE 1 3 1020.0 - 0.0 - - 10 - - - -
27/07:30pm 17.3 ESE 3 4 1019.9 - 0.0 - - 10 - - - -
27/07:00pm 18.5 ESE 4 4 1019.6 - 0.0 - - 10 - - - -
27/06:30pm 19.7 ENE 5 7 1019.4 - 0.0 - - 10 - - - -
27/06:00pm 20.1 E 6 8 1019.1 - 0.0 - - 10 - - - -
27/05:30pm 20.7 E 6 8 1018.8 - 0.0 - - 10 - - - -
27/05:00pm 21.3 E 8 11 1018.5 - 0.0 - Partly cloudy 10 - - - -
27/04:30pm 22.0 ESE 8 11 1018.5 - 0.0 - Partly cloudy 10 - - - -
27/04:00pm 21.8 ESE 7 8 1018.2 - 0.0 - - 10 - - - -
27/03:30pm 21.5 ESE 8 12 1018.1 - 0.0 - - 10 - - - -
27/03:00pm 23.3 ESE 10 14 1018.1 - 0.0 - Cloudy 10 - - - -
27/02:30pm 23.8 ESE 8 11 1018.0 - 0.0 - - 10 - - - -
27/02:00pm 23.8 ESE 7 9 1017.9 - 0.0 - - 10 - - - -
27/01:30pm 23.6 ESE 7 9 1018.1 - 0.0 - - 10 - - - -
27/01:00pm 23.3 ESE 8 11 1018.6 - 0.0 - Partly cloudy 10 - - - -
27/12:30pm 23.9 ESE 8 11 1019.0 - 0.0 - Partly cloudy 10 - - - -
27/12:00pm 23.5 ESE 10 16 1019.5 - 0.0 - Cloudy 10 - - - -
27/11:30am 23.4 SE 5 8 1019.9 - 0.0 - Partly cloudy 10 - - - -
27/11:00am 23.1 S 7 9 1020.2 - 0.0 - Partly cloudy 10 - - - -
27/10:30am 22.5 S 7 11 1020.6 - 0.0 - Partly cloudy 10 - - - -
27/10:00am 21.4 S 7 11 1021.1 - 0.0 - Cloudy 10 - - - -
27/09:30am 20.1 SSW 7 10 1021.1 - 0.0 - Cloudy 10 - - - -
27/09:00am 19.2 SSW 8 11 1021.0 - 0.2 - Cloudy 10 - - - -
27/08:30am 18.0 SSW 7 10 1020.9 - 0.2 - Partly cloudy 10 - - - -
27/08:00am 17.6 SSW 6 8 1020.7 - 0.2 - Partly cloudy 10 - - - -
27/07:30am 17.0 SSW 6 8 1020.5 - 0.2 - - 10 - - - -
27/07:00am 16.4 SSW 5 6 1020.4 - 0.2 - Partly cloudy 10 - - - -
27/06:30am 16.1 SSW 4 6 1020.0 - 0.2 - - 10 - - - -
27/06:00am 16.3 SSW 6 7 1019.4 - 0.2 - - 10 - - - -
27/05:30am 16.5 SSW 6 7 1019.1 - 0.2 - - 10 - - - -
27/05:00am 16.8 SSW 6 8 1019.0 - 0.2 - Partly cloudy 10 - - - -
27/04:30am 17.1 SSW 5 7 1019.0 - 0.2 - Cloudy 10 - - - -
27/04:00am 17.4 SW 5 7 1019.0 - 0.2 - Partly cloudy 10 - - - -
27/03:30am 17.6 SSW 5 7 1018.9 - 0.2 - Partly cloudy 10 - - - -
27/03:00am 17.5 SSW 6 7 1019.0 - 0.2 - Cloudy 10 - - - -
27/02:30am 17.1 SSW 5 6 1019.4 - 0.2 - Partly cloudy 10 - - - -
27/02:00am 16.7 CALM 0 0 1019.5 - 0.2 - Partly cloudy 8 - - - -
27/01:30am 16.6 SE 2 4 1019.9 - 0.2 - Partly cloudy 8 - - - -
27/01:00am 16.0 E 5 7 1020.1 - 0.2 - Partly cloudy 10 - - - -
27/12:30am 15.9 SW 5 6 1019.9 - 0.2 - Partly cloudy 10 - - - -
27/12:00am 15.7 SW 5 7 1019.9 - 0.2 - - 10 - - - -
 
Date/Time
EST
Temp
°C
Wind Pressure Rain since
9am
mm
Weather Cloud Vis
km
Sea
Height
m
Swell
Dir  Spd
kts
Gust
kts
hPa Trend Height
m
Period
s
Dir
26/11:30pm 14.4 SW 1 4 1019.9 - 0.2 - - 10 - - - -
26/11:00pm 14.2 CALM 0 0 1020.1 - 0.2 - - 10 - - - -
26/10:30pm 14.1 CALM 0 0 1020.1 - 0.2 - - 10 - - - -
26/10:00pm 14.3 CALM 0 0 1020.3 - 0.2 - - 10 - - - -
26/09:30pm 14.4 CALM 0 0 1020.1 - 0.2 - - 10 - - - -
26/09:00pm 14.9 CALM 0 0 1020.1 - 0.2 - - 10 - - - -
26/08:30pm 15.3 CALM 0 0 1019.9 - 0.2 - - 10 - - - -
26/08:00pm 15.7 CALM 0 0 1019.6 - 0.2 - - 10 - - - -
26/07:30pm 15.9 CALM 0 0 1019.3 - 0.2 - - 10 - - - -
26/07:00pm 16.7 CALM 0 0 1018.8 - 0.2 - - 10 - - - -
26/06:30pm 17.4 CALM 0 0 1018.4 - 0.2 - - 10 - - - -
26/06:00pm 19.3 SSE 4 5 1018.0 - 0.2 - - 10 - - - -
26/05:30pm 20.4 SSE 5 6 1017.8 - 0.2 - - 10 - - - -
26/05:00pm 21.4 SE 5 7 1017.6 - 0.2 - - 10 - - - -
26/04:30pm 22.3 SE 8 12 1017.6 - 0.2 - - 10 - - - -
26/04:00pm 23.0 SE 9 16 1017.4 - 0.2 - Partly cloudy 10 - - - -
26/03:30pm 22.9 ESE 9 13 1017.4 - 0.2 - Partly cloudy 10 - - - -
26/03:00pm 23.5 ESE 11 14 1017.3 - 0.2 - Mostly clear 10 - - - -
26/02:30pm 24.1 ESE 10 15 1017.4 - 0.2 - - 10 - - - -
26/02:00pm 24.4 ESE 10 15 1017.5 - 0.2 - - 10 - - - -
26/01:30pm 24.3 SE 8 13 1017.8 - 0.2 - Partly cloudy 10 - - - -
26/01:00pm 24.3 SE 9 12 1018.2 - 0.2 - Partly cloudy 10 - - - -
26/12:30pm 24.3 SE 8 13 1018.8 - 0.2 - Partly cloudy 10 - - - -
26/12:00pm 23.6 SSE 5 9 1019.1 - 0.2 Recent precip. Cloudy 10 - - - -
26/11:30am 22.9 SSW 7 11 1019.6 - 0.2 - Partly cloudy 10 - - - -
26/11:00am 23.2 SSW 6 11 1020.0 - 0.0 - Partly cloudy 10 - - - -
26/10:30am 22.3 SSW 7 11 1020.2 - 0.0 - - 10 - - - -
26/10:00am 21.3 SSW 7 9 1020.4 - 0.0 - Partly cloudy 10 - - - -
26/09:30am 19.6 SSW 6 8 1020.5 - 0.0 - Partly cloudy 10 - - - -
26/09:00am 19.6 SSW 7 10 1020.4 - 0.0 - Mostly clear 10 - - - -
26/08:30am 17.5 SSW 7 10 1020.2 - 0.0 - Partly cloudy 10 - - - -
26/08:00am 17.0 SSW 7 8 1020.0 - 0.0 - Partly cloudy 10 - - - -
26/07:30am 15.9 SSW 8 10 1019.8 - 0.0 - Partly cloudy 10 - - - -
26/07:00am 15.6 SSW 6 9 1019.5 - 0.0 - Partly cloudy 10 - - - -
26/06:30am 15.3 SW 7 8 1019.2 - 0.0 - - 10 - - - -
26/06:00am 15.3 SW 6 8 1018.8 - 0.0 - Partly cloudy 10 - - - -
26/05:30am 15.2 SW 5 7 1018.6 - 0.0 - - 10 - - - -
26/05:00am 15.3 SW 5 7 1018.2 - 0.0 - - 9 - - - -
26/04:30am 15.4 SW 5 6 1017.9 - 0.0 - - 8 - - - -
26/04:00am 15.6 SW 5 6 1017.7 - 0.0 - - 7 - - - -
26/03:30am 15.7 SW 5 6 1017.6 - 0.0 - - 6 - - - -
26/03:00am 15.9 SW 5 7 1017.8 - 0.0 - - 6 - - - -
26/02:46am 15.9 SW 4 6 1017.9 - 0.0 - - 6 - - - -
26/02:30am 16.0 SW 4 6 1018.0 - 0.0 - - 5 - - - -
26/02:00am 16.1 SW 5 7 1018.1 - 0.0 - - 5 - - - -
26/01:30am 16.3 SW 5 6 1018.3 - 0.0 - - 5 - - - -
26/01:29am 16.3 SW 5 6 1018.3 - 0.0 - - 5 - - - -
26/01:22am 16.4 SW 4 6 1018.4 - 0.0 - - 6 - - - -
26/01:12am 16.4 SW 5 7 1018.5 - 0.0 - - 5 - - - -
26/01:06am 16.4 SW 5 7 1018.6 - 0.0 - - 6 - - - -
26/01:00am 16.4 SW 5 6 1018.7 - 0.0 - - 6 - - - -
26/12:41am 16.3 SW 5 7 1018.7 - 0.0 - - 5 - - - -
26/12:30am 16.4 SW 5 6 1018.8 - 0.0 - - 6 - - - -
26/12:00am 16.5 SW 4 5 1018.9 - 0.0 - - 6 - - - -
 
Date/Time
EST
Temp
°C
Wind Pressure Rain since
9am
mm
Weather Cloud Vis
km
Sea
Height
m
Swell
Dir  Spd
kts
Gust
kts
hPa Trend Height
m
Period
s
Dir
25/11:30pm 16.1 SW 4 5 1018.9 - 0.0 - - 8 - - - -
25/11:00pm 16.3 SW 4 5 1019.1 - 0.0 - - 10 - - - -
25/10:30pm 16.6 SW 3 3 1019.1 - 0.0 - - 10 - - - -
25/10:00pm 17.1 SW 4 5 1019.2 - 0.0 - - 10 - - - -
25/09:30pm 16.5 SW 4 4 1019.1 - 0.0 - - 10 - - - -
25/09:00pm 16.6 SSW 3 4 1019.0 - 0.0 - - 10 - - - -
25/08:30pm 17.0 SSW 3 4 1018.9 - 0.0 - Partly cloudy 10 - - - -
25/08:00pm 18.3 SSW 4 5 1018.8 - 0.0 - Partly cloudy 10 - - - -
25/07:30pm 19.1 SSW 5 6 1018.6 - 0.0 - - 10 - - - -
25/07:00pm 19.7 S 4 6 1018.3 - 0.0 - - 10 - - - -
25/06:30pm 20.3 SSE 5 7 1018.0 - 0.0 - - 10 - - - -
25/06:00pm 20.9 SSE 6 8 1017.6 - 0.0 - Partly cloudy 10 - - - -
25/05:30pm 21.5 SSE 7 11 1017.4 - 0.0 - - 10 - - - -
25/05:00pm 22.0 SSE 7 11 1017.1 - 0.0 - - 10 - - - -
25/04:30pm 22.8 SE 8 12 1016.8 - 0.0 - - 10 - - - -
25/04:00pm 23.7 SE 8 12 1016.5 - 0.0 - - 10 - - - -
25/03:30pm 24.3 SSE 8 14 1016.3 - 0.0 - - 10 - - - -
25/03:00pm 24.7 SE 8 11 1016.2 - 0.0 - Mostly clear 10 - - - -
25/02:30pm 25.1 SSE 6 9 1016.2 - 0.0 - - 10 - - - -
25/02:00pm 25.1 SSE 5 9 1016.3 - 0.0 - - 10 - - - -
25/01:30pm 25.2 SE 7 11 1016.4 - 0.0 - - 10 - - - -
25/01:00pm 25.1 S 5 9 1016.6 - 0.0 - - 10 - - - -
25/12:30pm 24.8 SSW 8 12 1017.1 - 0.0 - - 10 - - - -
25/12:00pm 24.4 SW 8 12 1017.5 - 0.0 - - 10 - - - -
25/11:30am 24.4 SW 7 10 1017.8 - 0.0 - - 10 - - - -
25/11:00am 24.1 SW 9 11 1018.0 - 0.0 - - 10 - - - -
25/10:30am 23.6 SW 5 7 1018.3 - 0.0 - - 10 - - - -
25/10:00am 22.7 SW 7 9 1018.6 - 0.0 - - 10 - - - -
25/09:30am 21.9 SSW 7 11 1018.9 - 0.0 - - 10 - - - -

Other Formats:

Comma delimited format used in spreadsheet applications
http://www.bom.gov.au/fwo/IDQ60701/IDQ60701.95565.axf

JavaScript Object Notation format (JSON) in row-major order
http://www.bom.gov.au/fwo/IDQ60701/IDQ60701.95565.json